sensor_id;sensor_type;location;lat;lon;timestamp;P1;durP1;ratioP1;P2;durP2;ratioP2
73872;SDS011;62206;47.568;9.364;2022-08-03T00:02:00;6.97;;;2.40;;
73872;SDS011;62206;47.568;9.364;2022-08-03T00:04:29;4.63;;;2.22;;
73872;SDS011;62206;47.568;9.364;2022-08-03T00:09:23;2.70;;;2.15;;
73872;SDS011;62206;47.568;9.364;2022-08-03T00:11:50;2.53;;;1.95;;
73872;SDS011;62206;47.568;9.364;2022-08-03T00:14:17;3.72;;;2.55;;
73872;SDS011;62206;47.568;9.364;2022-08-03T00:16:44;2.63;;;2.33;;
73872;SDS011;62206;47.568;9.364;2022-08-03T00:19:11;3.72;;;2.55;;
73872;SDS011;62206;47.568;9.364;2022-08-03T00:21:39;4.28;;;2.33;;
73872;SDS011;62206;47.568;9.364;2022-08-03T00:24:06;3.00;;;1.95;;
73872;SDS011;62206;47.568;9.364;2022-08-03T00:26:33;2.88;;;1.65;;
73872;SDS011;62206;47.568;9.364;2022-08-03T00:29:00;2.63;;;2.20;;
73872;SDS011;62206;47.568;9.364;2022-08-03T00:31:27;2.42;;;2.22;;
73872;SDS011;62206;47.568;9.364;2022-08-03T00:33:54;4.13;;;2.25;;
73872;SDS011;62206;47.568;9.364;2022-08-03T00:36:22;3.00;;;2.42;;
73872;SDS011;62206;47.568;9.364;2022-08-03T00:38:50;2.33;;;2.13;;
73872;SDS011;62206;47.568;9.364;2022-08-03T00:41:17;2.85;;;2.33;;
73872;SDS011;62206;47.568;9.364;2022-08-03T00:43:45;2.30;;;2.10;;
73872;SDS011;62206;47.568;9.364;2022-08-03T00:46:12;2.78;;;2.35;;
73872;SDS011;62206;47.568;9.364;2022-08-03T00:48:39;3.75;;;2.47;;
73872;SDS011;62206;47.568;9.364;2022-08-03T00:51:06;2.75;;;2.55;;
73872;SDS011;62206;47.568;9.364;2022-08-03T00:53:33;3.05;;;2.33;;
73872;SDS011;62206;47.568;9.364;2022-08-03T00:56:02;6.97;;;3.22;;
73872;SDS011;62206;47.568;9.364;2022-08-03T00:58:29;4.68;;;2.60;;
73872;SDS011;62206;47.568;9.364;2022-08-03T01:00:56;4.30;;;2.63;;
73872;SDS011;62206;47.568;9.364;2022-08-03T01:03:23;3.00;;;2.35;;
73872;SDS011;62206;47.568;9.364;2022-08-03T01:05:52;2.60;;;2.22;;
73872;SDS011;62206;47.568;9.364;2022-08-03T01:08:27;3.13;;;1.90;;
73872;SDS011;62206;47.568;9.364;2022-08-03T01:10:59;2.80;;;2.50;;
73872;SDS011;62206;47.568;9.364;2022-08-03T01:13:33;3.28;;;2.30;;
73872;SDS011;62206;47.568;9.364;2022-08-03T01:16:04;5.05;;;2.72;;
73872;SDS011;62206;47.568;9.364;2022-08-03T01:18:35;2.78;;;2.40;;
73872;SDS011;62206;47.568;9.364;2022-08-03T01:21:11;3.05;;;2.83;;
73872;SDS011;62206;47.568;9.364;2022-08-03T01:23:49;2.75;;;2.55;;
73872;SDS011;62206;47.568;9.364;2022-08-03T01:26:41;3.85;;;3.53;;
73872;SDS011;62206;47.568;9.364;2022-08-03T01:29:44;12.38;;;4.63;;
73872;SDS011;62206;47.568;9.364;2022-08-03T01:32:26;2.60;;;2.05;;
73872;SDS011;62206;47.568;9.364;2022-08-03T01:34:59;3.28;;;2.47;;
73872;SDS011;62206;47.568;9.364;2022-08-03T01:37:31;2.55;;;2.35;;
73872;SDS011;62206;47.568;9.364;2022-08-03T01:40:02;4.43;;;2.38;;
73872;SDS011;62206;47.568;9.364;2022-08-03T01:42:31;6.97;;;3.22;;
73872;SDS011;62206;47.568;9.364;2022-08-03T01:45:00;4.78;;;2.97;;
73872;SDS011;62206;47.568;9.364;2022-08-03T01:47:29;3.20;;;2.60;;
73872;SDS011;62206;47.568;9.364;2022-08-03T01:49:57;2.60;;;2.40;;
73872;SDS011;62206;47.568;9.364;2022-08-03T01:52:24;2.30;;;2.10;;
73872;SDS011;62206;47.568;9.364;2022-08-03T01:54:52;6.95;;;2.78;;
73872;SDS011;62206;47.568;9.364;2022-08-03T01:57:19;3.03;;;2.57;;
73872;SDS011;62206;47.568;9.364;2022-08-03T01:59:47;3.77;;;2.33;;
73872;SDS011;62206;47.568;9.364;2022-08-03T02:02:16;3.47;;;2.63;;
73872;SDS011;62206;47.568;9.364;2022-08-03T02:04:44;2.85;;;2.60;;
73872;SDS011;62206;47.568;9.364;2022-08-03T02:07:12;4.13;;;3.33;;
73872;SDS011;62206;47.568;9.364;2022-08-03T02:09:40;3.08;;;2.65;;
73872;SDS011;62206;47.568;9.364;2022-08-03T02:12:08;3.30;;;3.00;;
73872;SDS011;62206;47.568;9.364;2022-08-03T02:14:35;3.15;;;2.83;;
73872;SDS011;62206;47.568;9.364;2022-08-03T02:17:02;2.67;;;2.40;;
73872;SDS011;62206;47.568;9.364;2022-08-03T02:19:32;10.27;;;3.53;;
73872;SDS011;62206;47.568;9.364;2022-08-03T02:21:58;5.25;;;3.83;;
73872;SDS011;62206;47.568;9.364;2022-08-03T02:24:25;2.95;;;2.60;;
73872;SDS011;62206;47.568;9.364;2022-08-03T02:26:53;3.28;;;2.65;;
73872;SDS011;62206;47.568;9.364;2022-08-03T02:29:21;3.42;;;3.13;;
73872;SDS011;62206;47.568;9.364;2022-08-03T02:31:49;4.30;;;2.88;;
73872;SDS011;62206;47.568;9.364;2022-08-03T02:34:17;3.03;;;2.83;;
73872;SDS011;62206;47.568;9.364;2022-08-03T02:39:16;4.28;;;3.00;;
73872;SDS011;62206;47.568;9.364;2022-08-03T02:41:48;2.88;;;2.67;;
73872;SDS011;62206;47.568;9.364;2022-08-03T02:44:19;4.65;;;2.80;;
73872;SDS011;62206;47.568;9.364;2022-08-03T02:46:52;3.35;;;2.85;;
73872;SDS011;62206;47.568;9.364;2022-08-03T02:49:20;6.53;;;2.65;;
73872;SDS011;62206;47.568;9.364;2022-08-03T02:51:48;3.90;;;3.03;;
73872;SDS011;62206;47.568;9.364;2022-08-03T02:54:18;4.25;;;2.80;;
73872;SDS011;62206;47.568;9.364;2022-08-03T02:56:46;3.25;;;2.95;;
73872;SDS011;62206;47.568;9.364;2022-08-03T02:59:13;2.97;;;2.78;;
73872;SDS011;62206;47.568;9.364;2022-08-03T03:01:44;3.90;;;3.22;;
73872;SDS011;62206;47.568;9.364;2022-08-03T03:04:10;3.45;;;3.15;;
73872;SDS011;62206;47.568;9.364;2022-08-03T03:06:39;4.65;;;3.38;;
73872;SDS011;62206;47.568;9.364;2022-08-03T03:09:08;3.50;;;3.20;;
73872;SDS011;62206;47.568;9.364;2022-08-03T03:11:37;4.15;;;2.83;;
73872;SDS011;62206;47.568;9.364;2022-08-03T03:14:04;4.33;;;3.30;;
73872;SDS011;62206;47.568;9.364;2022-08-03T03:16:31;3.17;;;2.97;;
73872;SDS011;62206;47.568;9.364;2022-08-03T03:18:59;3.97;;;3.13;;
73872;SDS011;62206;47.568;9.364;2022-08-03T03:21:27;3.25;;;2.90;;
73872;SDS011;62206;47.568;9.364;2022-08-03T03:23:55;4.22;;;3.22;;
73872;SDS011;62206;47.568;9.364;2022-08-03T03:26:23;3.17;;;2.90;;
73872;SDS011;62206;47.568;9.364;2022-08-03T03:28:51;4.10;;;2.85;;
73872;SDS011;62206;47.568;9.364;2022-08-03T03:31:18;6.07;;;2.80;;
73872;SDS011;62206;47.568;9.364;2022-08-03T03:33:45;4.72;;;3.33;;
73872;SDS011;62206;47.568;9.364;2022-08-03T03:36:12;4.68;;;3.03;;
73872;SDS011;62206;47.568;9.364;2022-08-03T03:38:39;3.38;;;3.08;;
73872;SDS011;62206;47.568;9.364;2022-08-03T03:41:06;2.97;;;2.78;;
73872;SDS011;62206;47.568;9.364;2022-08-03T03:43:35;7.10;;;3.90;;
73872;SDS011;62206;47.568;9.364;2022-08-03T03:46:03;4.60;;;2.97;;
73872;SDS011;62206;47.568;9.364;2022-08-03T03:48:30;4.50;;;3.58;;
73872;SDS011;62206;47.568;9.364;2022-08-03T03:50:57;3.75;;;3.45;;
73872;SDS011;62206;47.568;9.364;2022-08-03T03:53:24;4.68;;;3.13;;
73872;SDS011;62206;47.568;9.364;2022-08-03T03:55:52;3.65;;;3.35;;
73872;SDS011;62206;47.568;9.364;2022-08-03T03:58:19;3.92;;;2.95;;
73872;SDS011;62206;47.568;9.364;2022-08-03T04:00:47;3.53;;;3.22;;
73872;SDS011;62206;47.568;9.364;2022-08-03T04:03:14;4.47;;;3.05;;
73872;SDS011;62206;47.568;9.364;2022-08-03T04:05:41;2.90;;;2.70;;
73872;SDS011;62206;47.568;9.364;2022-08-03T04:08:27;5.07;;;3.78;;
73872;SDS011;62206;47.568;9.364;2022-08-03T04:11:12;4.00;;;2.65;;
73872;SDS011;62206;47.568;9.364;2022-08-03T04:13:42;3.30;;;2.67;;
73872;SDS011;62206;47.568;9.364;2022-08-03T04:16:15;4.28;;;3.88;;
73872;SDS011;62206;47.568;9.364;2022-08-03T04:18:45;5.30;;;3.33;;
73872;SDS011;62206;47.568;9.364;2022-08-03T04:21:15;3.53;;;3.20;;
73872;SDS011;62206;47.568;9.364;2022-08-03T04:23:45;3.88;;;3.25;;
73872;SDS011;62206;47.568;9.364;2022-08-03T04:26:14;3.53;;;2.97;;
73872;SDS011;62206;47.568;9.364;2022-08-03T04:28:43;3.45;;;2.97;;
73872;SDS011;62206;47.568;9.364;2022-08-03T04:31:13;4.20;;;3.10;;
73872;SDS011;62206;47.568;9.364;2022-08-03T04:33:42;3.60;;;2.63;;
73872;SDS011;62206;47.568;9.364;2022-08-03T04:36:11;3.75;;;3.38;;
73872;SDS011;62206;47.568;9.364;2022-08-03T04:38:42;3.65;;;3.33;;
73872;SDS011;62206;47.568;9.364;2022-08-03T04:41:13;4.53;;;2.78;;
73872;SDS011;62206;47.568;9.364;2022-08-03T04:43:40;6.60;;;3.42;;
73872;SDS011;62206;47.568;9.364;2022-08-03T04:46:07;6.15;;;3.08;;
73872;SDS011;62206;47.568;9.364;2022-08-03T04:48:37;4.80;;;3.67;;
73872;SDS011;62206;47.568;9.364;2022-08-03T04:51:04;4.30;;;2.63;;
73872;SDS011;62206;47.568;9.364;2022-08-03T04:53:31;4.07;;;2.85;;
73872;SDS011;62206;47.568;9.364;2022-08-03T04:56:02;2.95;;;2.72;;
73872;SDS011;62206;47.568;9.364;2022-08-03T04:58:30;3.45;;;3.15;;
73872;SDS011;62206;47.568;9.364;2022-08-03T05:00:57;5.40;;;3.60;;
73872;SDS011;62206;47.568;9.364;2022-08-03T05:03:24;2.92;;;2.72;;
73872;SDS011;62206;47.568;9.364;2022-08-03T05:05:52;3.53;;;3.22;;
73872;SDS011;62206;47.568;9.364;2022-08-03T05:08:20;3.08;;;2.65;;
73872;SDS011;62206;47.568;9.364;2022-08-03T05:10:47;4.28;;;2.97;;
73872;SDS011;62206;47.568;9.364;2022-08-03T05:13:14;3.67;;;2.28;;
73872;SDS011;62206;47.568;9.364;2022-08-03T05:15:41;3.30;;;2.20;;
73872;SDS011;62206;47.568;9.364;2022-08-03T05:18:08;3.93;;;2.70;;
73872;SDS011;62206;47.568;9.364;2022-08-03T05:20:35;3.03;;;2.72;;
73872;SDS011;62206;47.568;9.364;2022-08-03T05:23:03;2.95;;;2.65;;
73872;SDS011;62206;47.568;9.364;2022-08-03T05:25:31;6.00;;;2.20;;
73872;SDS011;62206;47.568;9.364;2022-08-03T05:27:57;3.35;;;1.80;;
73872;SDS011;62206;47.568;9.364;2022-08-03T05:30:24;2.70;;;2.20;;
73872;SDS011;62206;47.568;9.364;2022-08-03T05:32:51;3.38;;;1.73;;
73872;SDS011;62206;47.568;9.364;2022-08-03T05:35:18;2.97;;;2.63;;
73872;SDS011;62206;47.568;9.364;2022-08-03T05:37:45;2.80;;;2.53;;
73872;SDS011;62206;47.568;9.364;2022-08-03T05:40:14;2.28;;;2.13;;
73872;SDS011;62206;47.568;9.364;2022-08-03T05:42:40;7.82;;;2.22;;
73872;SDS011;62206;47.568;9.364;2022-08-03T05:45:08;1.88;;;1.77;;
73872;SDS011;62206;47.568;9.364;2022-08-03T05:47:41;3.78;;;1.92;;
73872;SDS011;62206;47.568;9.364;2022-08-03T05:50:08;4.43;;;2.47;;
73872;SDS011;62206;47.568;9.364;2022-08-03T05:52:35;3.15;;;2.33;;
73872;SDS011;62206;47.568;9.364;2022-08-03T05:55:03;6.05;;;2.63;;
73872;SDS011;62206;47.568;9.364;2022-08-03T05:57:32;13.00;;;2.25;;
73872;SDS011;62206;47.568;9.364;2022-08-03T05:59:58;4.65;;;2.20;;
73872;SDS011;62206;47.568;9.364;2022-08-03T06:02:26;2.00;;;1.80;;
73872;SDS011;62206;47.568;9.364;2022-08-03T06:04:53;2.10;;;1.90;;
73872;SDS011;62206;47.568;9.364;2022-08-03T06:07:19;3.92;;;2.22;;
73872;SDS011;62206;47.568;9.364;2022-08-03T06:09:47;2.63;;;2.35;;
73872;SDS011;62206;47.568;9.364;2022-08-03T06:40:04;8.30;;;2.55;;
73872;SDS011;62206;47.568;9.364;2022-08-03T06:42:31;2.97;;;2.30;;
73872;SDS011;62206;47.568;9.364;2022-08-03T06:44:58;5.45;;;2.55;;
73872;SDS011;62206;47.568;9.364;2022-08-03T06:47:25;3.35;;;2.65;;
73872;SDS011;62206;47.568;9.364;2022-08-03T06:49:52;3.40;;;3.00;;
73872;SDS011;62206;47.568;9.364;2022-08-03T06:52:19;3.47;;;2.83;;
73872;SDS011;62206;47.568;9.364;2022-08-03T06:54:46;2.60;;;2.40;;
73872;SDS011;62206;47.568;9.364;2022-08-03T06:57:14;3.78;;;2.40;;
73872;SDS011;62206;47.568;9.364;2022-08-03T06:59:43;2.92;;;2.33;;
73872;SDS011;62206;47.568;9.364;2022-08-03T07:02:10;2.65;;;2.45;;
73872;SDS011;62206;47.568;9.364;2022-08-03T07:04:36;2.45;;;2.25;;
73872;SDS011;62206;47.568;9.364;2022-08-03T07:07:04;6.25;;;2.95;;
73872;SDS011;62206;47.568;9.364;2022-08-03T07:09:31;3.25;;;2.70;;
73872;SDS011;62206;47.568;9.364;2022-08-03T07:11:57;3.03;;;2.72;;
73872;SDS011;62206;47.568;9.364;2022-08-03T07:14:28;2.80;;;2.53;;
73872;SDS011;62206;47.568;9.364;2022-08-03T07:16:55;4.47;;;2.80;;
73872;SDS011;62206;47.568;9.364;2022-08-03T07:19:21;2.75;;;2.53;;
73872;SDS011;62206;47.568;9.364;2022-08-03T07:21:49;3.70;;;3.40;;
73872;SDS011;62206;47.568;9.364;2022-08-03T07:24:15;3.35;;;2.92;;
73872;SDS011;62206;47.568;9.364;2022-08-03T07:26:42;5.53;;;3.05;;
73872;SDS011;62206;47.568;9.364;2022-08-03T07:29:09;3.25;;;2.95;;
73872;SDS011;62206;47.568;9.364;2022-08-03T07:31:37;3.95;;;2.83;;
73872;SDS011;62206;47.568;9.364;2022-08-03T07:34:04;5.78;;;3.45;;
73872;SDS011;62206;47.568;9.364;2022-08-03T07:36:31;3.38;;;3.08;;
73872;SDS011;62206;47.568;9.364;2022-08-03T07:38:58;3.58;;;2.95;;
73872;SDS011;62206;47.568;9.364;2022-08-03T07:41:25;3.33;;;3.03;;
73872;SDS011;62206;47.568;9.364;2022-08-03T07:43:52;5.35;;;3.20;;
73872;SDS011;62206;47.568;9.364;2022-08-03T07:46:19;11.02;;;3.35;;
73872;SDS011;62206;47.568;9.364;2022-08-03T07:48:47;4.13;;;3.33;;
73872;SDS011;62206;47.568;9.364;2022-08-03T07:51:14;6.82;;;3.58;;
73872;SDS011;62206;47.568;9.364;2022-08-03T07:53:41;6.07;;;3.15;;
73872;SDS011;62206;47.568;9.364;2022-08-03T07:56:08;3.58;;;2.95;;
73872;SDS011;62206;47.568;9.364;2022-08-03T07:58:35;2.97;;;2.78;;
73872;SDS011;62206;47.568;9.364;2022-08-03T08:01:02;4.45;;;3.13;;
73872;SDS011;62206;47.568;9.364;2022-08-03T08:03:29;3.00;;;2.80;;
73872;SDS011;62206;47.568;9.364;2022-08-03T08:05:58;4.28;;;2.67;;
73872;SDS011;62206;47.568;9.364;2022-08-03T08:08:24;5.70;;;3.78;;
73872;SDS011;62206;47.568;9.364;2022-08-03T08:10:51;3.40;;;3.10;;
73872;SDS011;62206;47.568;9.364;2022-08-03T08:13:19;4.63;;;3.67;;
73872;SDS011;62206;47.568;9.364;2022-08-03T08:15:45;4.85;;;4.22;;
73872;SDS011;62206;47.568;9.364;2022-08-03T08:18:12;12.40;;;4.18;;
73872;SDS011;62206;47.568;9.364;2022-08-03T08:20:39;3.95;;;3.65;;
73872;SDS011;62206;47.568;9.364;2022-08-03T08:23:08;4.43;;;3.63;;
73872;SDS011;62206;47.568;9.364;2022-08-03T08:25:34;4.95;;;4.20;;
73872;SDS011;62206;47.568;9.364;2022-08-03T08:28:02;8.07;;;3.67;;
73872;SDS011;62206;47.568;9.364;2022-08-03T08:30:29;5.07;;;3.67;;
73872;SDS011;62206;47.568;9.364;2022-08-03T08:32:57;4.40;;;4.00;;
73872;SDS011;62206;47.568;9.364;2022-08-03T08:35:24;6.93;;;4.10;;
73872;SDS011;62206;47.568;9.364;2022-08-03T08:37:51;5.53;;;4.90;;
73872;SDS011;62206;47.568;9.364;2022-08-03T08:40:21;4.45;;;3.85;;
73872;SDS011;62206;47.568;9.364;2022-08-03T08:42:48;4.10;;;3.80;;
73872;SDS011;62206;47.568;9.364;2022-08-03T08:45:15;6.95;;;4.10;;
73872;SDS011;62206;47.568;9.364;2022-08-03T08:47:44;5.07;;;3.58;;
73872;SDS011;62206;47.568;9.364;2022-08-03T08:50:12;4.18;;;3.53;;
73872;SDS011;62206;47.568;9.364;2022-08-03T08:52:40;5.45;;;3.70;;
73872;SDS011;62206;47.568;9.364;2022-08-03T08:55:07;4.68;;;4.28;;
73872;SDS011;62206;47.568;9.364;2022-08-03T08:57:46;4.35;;;3.80;;
73872;SDS011;62206;47.568;9.364;2022-08-03T09:00:14;6.03;;;3.40;;
73872;SDS011;62206;47.568;9.364;2022-08-03T09:02:43;5.50;;;3.92;;
73872;SDS011;62206;47.568;9.364;2022-08-03T09:05:11;5.00;;;3.28;;
73872;SDS011;62206;47.568;9.364;2022-08-03T09:07:38;6.53;;;3.33;;
73872;SDS011;62206;47.568;9.364;2022-08-03T09:10:06;3.93;;;3.30;;
73872;SDS011;62206;47.568;9.364;2022-08-03T09:12:37;3.35;;;3.05;;
73872;SDS011;62206;47.568;9.364;2022-08-03T09:15:16;5.97;;;3.38;;
73872;SDS011;62206;47.568;9.364;2022-08-03T09:17:43;3.53;;;3.22;;
73872;SDS011;62206;47.568;9.364;2022-08-03T09:20:11;3.20;;;2.90;;
73872;SDS011;62206;47.568;9.364;2022-08-03T09:22:48;4.57;;;3.67;;
73872;SDS011;62206;47.568;9.364;2022-08-03T09:25:17;3.30;;;3.00;;
73872;SDS011;62206;47.568;9.364;2022-08-03T09:27:46;4.35;;;3.47;;
73872;SDS011;62206;47.568;9.364;2022-08-03T09:30:13;3.90;;;3.53;;
73872;SDS011;62206;47.568;9.364;2022-08-03T09:32:41;4.10;;;3.15;;
73872;SDS011;62206;47.568;9.364;2022-08-03T09:35:10;4.45;;;3.40;;
73872;SDS011;62206;47.568;9.364;2022-08-03T09:37:37;3.95;;;2.53;;
73872;SDS011;62206;47.568;9.364;2022-08-03T09:40:05;3.70;;;2.80;;
73872;SDS011;62206;47.568;9.364;2022-08-03T09:42:32;4.45;;;3.22;;
73872;SDS011;62206;47.568;9.364;2022-08-03T09:45:04;3.47;;;2.97;;
73872;SDS011;62206;47.568;9.364;2022-08-03T09:47:32;5.18;;;3.20;;
73872;SDS011;62206;47.568;9.364;2022-08-03T09:50:01;5.03;;;3.05;;
73872;SDS011;62206;47.568;9.364;2022-08-03T09:52:30;3.92;;;3.63;;
73872;SDS011;62206;47.568;9.364;2022-08-03T09:54:58;4.65;;;3.15;;
73872;SDS011;62206;47.568;9.364;2022-08-03T10:00:04;5.13;;;3.42;;
73872;SDS011;62206;47.568;9.364;2022-08-03T10:02:35;3.60;;;3.33;;
73872;SDS011;62206;47.568;9.364;2022-08-03T10:05:02;5.28;;;3.95;;
73872;SDS011;62206;47.568;9.364;2022-08-03T10:07:29;3.10;;;2.65;;
73872;SDS011;62206;47.568;9.364;2022-08-03T10:10:08;3.13;;;2.85;;
73872;SDS011;62206;47.568;9.364;2022-08-03T10:12:35;4.28;;;3.03;;
73872;SDS011;62206;47.568;9.364;2022-08-03T10:15:04;3.45;;;3.15;;
73872;SDS011;62206;47.568;9.364;2022-08-03T10:17:32;2.75;;;2.55;;
73872;SDS011;62206;47.568;9.364;2022-08-03T10:19:59;2.70;;;2.50;;
73872;SDS011;62206;47.568;9.364;2022-08-03T10:22:28;3.97;;;3.58;;
73872;SDS011;62206;47.568;9.364;2022-08-03T10:24:59;3.45;;;2.60;;
73872;SDS011;62206;47.568;9.364;2022-08-03T10:27:30;3.25;;;2.95;;
73872;SDS011;62206;47.568;9.364;2022-08-03T10:30:00;4.82;;;2.40;;
73872;SDS011;62206;47.568;9.364;2022-08-03T10:32:33;2.40;;;2.20;;
73872;SDS011;62206;47.568;9.364;2022-08-03T10:35:03;3.70;;;2.47;;
73872;SDS011;62206;47.568;9.364;2022-08-03T10:37:32;2.83;;;2.40;;
73872;SDS011;62206;47.568;9.364;2022-08-03T10:40:02;3.00;;;2.80;;
73872;SDS011;62206;47.568;9.364;2022-08-03T10:45:02;4.22;;;2.95;;
73872;SDS011;62206;47.568;9.364;2022-08-03T10:47:32;7.85;;;2.85;;
73872;SDS011;62206;47.568;9.364;2022-08-03T10:49:59;2.15;;;1.95;;
73872;SDS011;62206;47.568;9.364;2022-08-03T10:52:26;3.17;;;2.00;;
73872;SDS011;62206;47.568;9.364;2022-08-03T10:54:54;4.32;;;2.92;;
73872;SDS011;62206;47.568;9.364;2022-08-03T10:57:41;6.70;;;2.45;;
73872;SDS011;62206;47.568;9.364;2022-08-03T11:00:10;3.80;;;3.05;;
73872;SDS011;62206;47.568;9.364;2022-08-03T11:05:30;2.10;;;1.92;;
73872;SDS011;62206;47.568;9.364;2022-08-03T11:10:49;1.92;;;1.83;;
73872;SDS011;62206;47.568;9.364;2022-08-03T11:13:17;2.75;;;2.35;;
73872;SDS011;62206;47.568;9.364;2022-08-03T11:15:46;2.40;;;2.20;;
73872;SDS011;62206;47.568;9.364;2022-08-03T11:18:15;4.45;;;2.60;;
73872;SDS011;62206;47.568;9.364;2022-08-03T11:20:43;1.77;;;1.67;;
73872;SDS011;62206;47.568;9.364;2022-08-03T11:23:14;2.53;;;2.22;;
73872;SDS011;62206;47.568;9.364;2022-08-03T12:02:27;3.53;;;1.50;;
73872;SDS011;62206;47.568;9.364;2022-08-03T12:04:55;3.05;;;2.17;;
73872;SDS011;62206;47.568;9.364;2022-08-03T12:07:25;3.30;;;1.40;;
73872;SDS011;62206;47.568;9.364;2022-08-03T12:10:05;1.42;;;1.33;;
73872;SDS011;62206;47.568;9.364;2022-08-03T12:12:33;1.63;;;1.52;;
73872;SDS011;62206;47.568;9.364;2022-08-03T12:15:01;3.53;;;1.73;;
73872;SDS011;62206;47.568;9.364;2022-08-03T12:17:33;2.03;;;1.90;;
73872;SDS011;62206;47.568;9.364;2022-08-03T12:20:00;3.95;;;1.73;;
73872;SDS011;62206;47.568;9.364;2022-08-03T12:22:30;1.65;;;1.50;;
73872;SDS011;62206;47.568;9.364;2022-08-03T12:24:57;1.85;;;1.38;;
73872;SDS011;62206;47.568;9.364;2022-08-03T12:27:25;2.77;;;1.97;;
73872;SDS011;62206;47.568;9.364;2022-08-03T12:29:54;4.90;;;1.83;;
73872;SDS011;62206;47.568;9.364;2022-08-03T12:32:22;1.75;;;1.65;;
73872;SDS011;62206;47.568;9.364;2022-08-03T12:34:51;2.15;;;1.52;;
73872;SDS011;62206;47.568;9.364;2022-08-03T12:37:18;1.75;;;1.33;;
73872;SDS011;62206;47.568;9.364;2022-08-03T12:39:48;1.85;;;1.75;;
73872;SDS011;62206;47.568;9.364;2022-08-03T12:42:16;1.63;;;1.52;;
73872;SDS011;62206;47.568;9.364;2022-08-03T12:44:43;2.38;;;1.70;;
73872;SDS011;62206;47.568;9.364;2022-08-03T12:47:13;1.90;;;1.80;;
73872;SDS011;62206;47.568;9.364;2022-08-03T12:49:43;2.63;;;1.63;;
73872;SDS011;62206;47.568;9.364;2022-08-03T12:52:12;1.40;;;1.30;;
73872;SDS011;62206;47.568;9.364;2022-08-03T12:54:38;1.65;;;1.55;;
73872;SDS011;62206;47.568;9.364;2022-08-03T12:57:06;1.80;;;1.67;;
73872;SDS011;62206;47.568;9.364;2022-08-03T12:59:35;0.95;;;0.85;;
73872;SDS011;62206;47.568;9.364;2022-08-03T13:02:13;1.25;;;1.10;;
73872;SDS011;62206;47.568;9.364;2022-08-03T13:04:40;1.02;;;0.90;;
73872;SDS011;62206;47.568;9.364;2022-08-03T13:07:08;1.00;;;1.00;;
73872;SDS011;62206;47.568;9.364;2022-08-03T13:09:41;2.30;;;1.20;;
73872;SDS011;62206;47.568;9.364;2022-08-03T13:12:09;1.15;;;1.15;;
73872;SDS011;62206;47.568;9.364;2022-08-03T13:14:37;2.05;;;1.48;;
73872;SDS011;62206;47.568;9.364;2022-08-03T13:17:04;1.00;;;0.98;;
73872;SDS011;62206;47.568;9.364;2022-08-03T13:19:32;1.70;;;1.40;;
73872;SDS011;62206;47.568;9.364;2022-08-03T13:21:58;1.38;;;1.27;;
73872;SDS011;62206;47.568;9.364;2022-08-03T13:24:26;1.58;;;1.38;;
73872;SDS011;62206;47.568;9.364;2022-08-03T13:26:55;1.20;;;1.10;;
73872;SDS011;62206;47.568;9.364;2022-08-03T13:31:48;1.60;;;1.30;;
73872;SDS011;62206;47.568;9.364;2022-08-03T13:34:15;1.63;;;1.35;;
73872;SDS011;62206;47.568;9.364;2022-08-03T13:36:43;1.60;;;1.50;;
73872;SDS011;62206;47.568;9.364;2022-08-03T13:39:10;1.40;;;1.30;;
73872;SDS011;62206;47.568;9.364;2022-08-03T13:41:37;1.90;;;1.05;;
73872;SDS011;62206;47.568;9.364;2022-08-03T13:44:05;1.63;;;1.52;;
73872;SDS011;62206;47.568;9.364;2022-08-03T13:46:32;0.77;;;0.77;;
73872;SDS011;62206;47.568;9.364;2022-08-03T13:48:59;1.00;;;0.90;;
73872;SDS011;62206;47.568;9.364;2022-08-03T13:51:26;1.25;;;1.00;;
73872;SDS011;62206;47.568;9.364;2022-08-03T13:53:52;1.27;;;0.73;;
73872;SDS011;62206;47.568;9.364;2022-08-03T13:56:20;1.15;;;1.05;;
73872;SDS011;62206;47.568;9.364;2022-08-03T13:58:46;1.20;;;1.08;;
73872;SDS011;62206;47.568;9.364;2022-08-03T14:01:14;1.10;;;0.95;;
73872;SDS011;62206;47.568;9.364;2022-08-03T14:03:42;1.30;;;1.20;;
73872;SDS011;62206;47.568;9.364;2022-08-03T14:06:09;1.05;;;1.05;;
73872;SDS011;62206;47.568;9.364;2022-08-03T14:08:35;0.80;;;0.80;;
73872;SDS011;62206;47.568;9.364;2022-08-03T14:11:03;4.30;;;1.30;;
73872;SDS011;62206;47.568;9.364;2022-08-03T14:13:29;1.65;;;1.50;;
73872;SDS011;62206;47.568;9.364;2022-08-03T14:15:56;2.03;;;1.10;;
73872;SDS011;62206;47.568;9.364;2022-08-03T14:18:25;1.48;;;1.38;;
73872;SDS011;62206;47.568;9.364;2022-08-03T14:20:51;1.10;;;0.98;;
73872;SDS011;62206;47.568;9.364;2022-08-03T14:23:18;2.03;;;1.70;;
73872;SDS011;62206;47.568;9.364;2022-08-03T14:25:45;2.80;;;1.92;;
73872;SDS011;62206;47.568;9.364;2022-08-03T14:28:12;2.08;;;1.65;;
73872;SDS011;62206;47.568;9.364;2022-08-03T14:30:39;1.58;;;1.48;;
73872;SDS011;62206;47.568;9.364;2022-08-03T14:33:06;5.72;;;1.48;;
73872;SDS011;62206;47.568;9.364;2022-08-03T14:35:34;0.98;;;0.93;;
73872;SDS011;62206;47.568;9.364;2022-08-03T14:38:01;0.82;;;0.82;;
73872;SDS011;62206;47.568;9.364;2022-08-03T14:40:28;1.35;;;1.25;;
73872;SDS011;62206;47.568;9.364;2022-08-03T14:42:55;1.30;;;1.20;;
73872;SDS011;62206;47.568;9.364;2022-08-03T14:45:22;2.85;;;1.33;;
73872;SDS011;62206;47.568;9.364;2022-08-03T14:47:49;1.45;;;1.10;;
73872;SDS011;62206;47.568;9.364;2022-08-03T14:50:16;2.53;;;1.83;;
73872;SDS011;62206;47.568;9.364;2022-08-03T14:52:44;1.77;;;1.65;;
73872;SDS011;62206;47.568;9.364;2022-08-03T14:55:11;1.30;;;1.20;;
73872;SDS011;62206;47.568;9.364;2022-08-03T14:57:38;3.42;;;1.73;;
73872;SDS011;62206;47.568;9.364;2022-08-03T15:00:05;2.63;;;1.58;;
73872;SDS011;62206;47.568;9.364;2022-08-03T15:02:33;1.55;;;1.38;;
73872;SDS011;62206;47.568;9.364;2022-08-03T15:05:00;1.88;;;1.77;;
73872;SDS011;62206;47.568;9.364;2022-08-03T15:07:27;1.25;;;1.15;;
73872;SDS011;62206;47.568;9.364;2022-08-03T15:09:55;3.70;;;2.15;;
73872;SDS011;62206;47.568;9.364;2022-08-03T15:12:23;6.82;;;1.35;;
73872;SDS011;62206;47.568;9.364;2022-08-03T15:14:50;1.55;;;1.45;;
73872;SDS011;62206;47.568;9.364;2022-08-03T15:17:17;1.75;;;1.10;;
73872;SDS011;62206;47.568;9.364;2022-08-03T15:19:44;1.80;;;1.48;;
73872;SDS011;62206;47.568;9.364;2022-08-03T15:22:11;1.45;;;0.82;;
73872;SDS011;62206;47.568;9.364;2022-08-03T15:24:40;0.80;;;0.80;;
73872;SDS011;62206;47.568;9.364;2022-08-03T15:27:08;4.20;;;1.25;;
73872;SDS011;62206;47.568;9.364;2022-08-03T15:29:34;1.10;;;0.88;;
73872;SDS011;62206;47.568;9.364;2022-08-03T15:32:02;0.82;;;0.57;;
73872;SDS011;62206;47.568;9.364;2022-08-03T15:34:29;0.63;;;0.50;;
73872;SDS011;62206;47.568;9.364;2022-08-03T15:36:55;3.05;;;0.85;;
73872;SDS011;62206;47.568;9.364;2022-08-03T15:39:23;1.35;;;0.90;;
73872;SDS011;62206;47.568;9.364;2022-08-03T15:41:50;2.15;;;1.00;;
73872;SDS011;62206;47.568;9.364;2022-08-03T15:44:19;3.42;;;0.60;;
73872;SDS011;62206;47.568;9.364;2022-08-03T15:46:46;1.25;;;1.15;;
73872;SDS011;62206;47.568;9.364;2022-08-03T15:49:13;0.98;;;0.88;;
73872;SDS011;62206;47.568;9.364;2022-08-03T15:51:40;1.30;;;0.88;;
73872;SDS011;62206;47.568;9.364;2022-08-03T15:54:08;0.60;;;0.60;;
73872;SDS011;62206;47.568;9.364;2022-08-03T15:56:35;1.50;;;1.00;;
73872;SDS011;62206;47.568;9.364;2022-08-03T15:59:01;3.78;;;1.10;;
73872;SDS011;62206;47.568;9.364;2022-08-03T16:01:30;1.15;;;1.15;;
73872;SDS011;62206;47.568;9.364;2022-08-03T16:03:57;1.15;;;1.05;;
73872;SDS011;62206;47.568;9.364;2022-08-03T16:06:23;1.33;;;1.00;;
73872;SDS011;62206;47.568;9.364;2022-08-03T16:08:51;1.02;;;1.02;;
73872;SDS011;62206;47.568;9.364;2022-08-03T16:11:17;1.73;;;1.55;;
73872;SDS011;62206;47.568;9.364;2022-08-03T16:13:44;1.00;;;1.00;;
73872;SDS011;62206;47.568;9.364;2022-08-03T16:16:12;0.73;;;0.73;;
73872;SDS011;62206;47.568;9.364;2022-08-03T16:18:40;1.38;;;1.10;;